Time;durP1;ratioP1;P1;durP2;ratioP2;P2;SDS_P1;SDS_P2;PMS_P1;PMS_P2;Temp;Humidity;BMP_temperature;BMP_pressure;BME280_temperature;BME280_humidity;BME280_pressure;Samples;Min_cycle;Max_cycle;Signal;HPM_P1;HPM_P2
2022/08/03 00:00:40;;;;;;;13.97;2.30;;;19.70;99.90;;;;;;5025451;28;212314;-65
2022/08/03 00:03:07;;;;;;;10.75;2.50;;;19.70;99.90;;;;;;5051701;28;20052;-65
2022/08/03 00:05:33;;;;;;;9.90;2.25;;;19.70;99.90;;;;;;5010590;28;209735;-64
2022/08/03 00:07:59;;;;;;;10.38;2.22;;;19.60;99.90;;;;;;5031724;28;206032;-65
2022/08/03 00:10:26;;;;;;;11.13;2.38;;;19.60;99.90;;;;;;5038946;28;162690;-65
2022/08/03 00:12:53;;;;;;;13.82;2.28;;;19.60;99.90;;;;;;5022189;28;207033;-66
2022/08/03 00:15:19;;;;;;;11.50;2.50;;;19.60;99.90;;;;;;5066975;28;264249;-65
2022/08/03 00:17:45;;;;;;;11.60;2.28;;;19.50;99.90;;;;;;5016446;28;157115;-65
2022/08/03 00:20:11;;;;;;;11.07;2.22;;;19.50;99.90;;;;;;5043905;28;42776;-65
2022/08/03 00:22:38;;;;;;;10.93;2.22;;;19.50;99.90;;;;;;5007078;28;212117;-65
2022/08/03 00:25:04;;;;;;;11.02;1.83;;;19.50;99.90;;;;;;5041620;28;119260;-65
2022/08/03 00:27:30;;;;;;;13.23;2.40;;;19.50;99.90;;;;;;4990172;28;206628;-66
2022/08/03 00:29:56;;;;;;;11.70;2.03;;;19.50;99.90;;;;;;5040198;28;108387;-66
2022/08/03 00:32:23;;;;;;;13.70;1.98;;;19.40;99.90;;;;;;5029078;28;181055;-66
2022/08/03 00:34:49;;;;;;;13.65;2.20;;;19.50;99.90;;;;;;5052907;28;249796;-66
2022/08/03 00:37:15;;;;;;;11.75;2.20;;;19.50;99.90;;;;;;5010272;28;205289;-66
2022/08/03 00:39:42;;;;;;;11.18;2.20;;;19.40;99.90;;;;;;5064540;28;254539;-66
2022/08/03 00:42:08;;;;;;;9.75;1.80;;;19.40;99.90;;;;;;5035637;28;211871;-66
2022/08/03 00:44:42;;;;;;;9.88;1.85;;;19.40;99.90;;;;;;5057650;28;113691;-66
2022/08/03 00:47:09;;;;;;;12.07;2.05;;;19.40;99.90;;;;;;5006334;28;207330;-66
2022/08/03 00:49:37;;;;;;;11.48;2.10;;;19.30;99.90;;;;;;5064028;28;243700;-66
2022/08/03 00:52:03;;;;;;;9.48;1.70;;;19.30;99.90;;;;;;5008486;28;206865;-64
2022/08/03 00:54:30;;;;;;;10.77;1.90;;;19.30;99.90;;;;;;5023656;28;29307;-65
2022/08/03 00:56:57;;;;;;;10.98;1.90;;;19.30;99.90;;;;;;5007079;28;204265;-66
2022/08/03 00:59:23;;;;;;;10.07;2.15;;;19.30;99.90;;;;;;5024965;28;107909;-66
2022/08/03 01:01:49;;;;;;;11.07;2.00;;;19.30;99.90;;;;;;5012916;28;207006;-66
2022/08/03 01:04:15;;;;;;;12.25;1.90;;;19.30;99.90;;;;;;5028635;28;151445;-66
2022/08/03 01:07:08;;;;;;;11.15;2.10;;;19.30;99.90;;;;;;5036615;28;209925;-66
2022/08/03 01:09:43;;;;;;;14.45;1.98;;;19.30;99.90;;;;;;5053595;28;218180;-66
2022/08/03 01:12:31;;;;;;;13.52;2.20;;;19.20;99.90;;;;;;5036661;28;209886;-66
2022/08/03 01:15:07;;;;;;;11.90;1.63;;;19.30;99.90;;;;;;5076932;28;20052;-66
2022/08/03 01:17:59;;;;;;;16.67;1.92;;;19.30;99.90;;;;;;5034642;28;209932;-66
2022/08/03 01:20:32;;;;;;;14.30;1.88;;;19.30;99.90;;;;;;5065282;28;262558;-67
2022/08/03 01:23:17;;;;;;;13.25;1.92;;;19.30;99.90;;;;;;5008022;28;207435;-66
2022/08/03 01:26:01;;;;;;;11.73;1.95;;;19.20;99.90;;;;;;5014574;28;209668;-65
2022/08/03 01:28:54;;;;;;;11.97;1.73;;;19.30;99.90;;;;;;5031706;28;257295;-65
2022/08/03 01:31:26;;;;;;;12.15;1.90;;;19.20;99.90;;;;;;5034359;28;212150;-65
2022/08/03 01:33:59;;;;;;;11.23;1.80;;;19.30;99.90;;;;;;5058992;28;190312;-66
2022/08/03 01:36:42;;;;;;;11.80;1.88;;;19.30;99.90;;;;;;5009048;28;206603;-65
2022/08/03 01:39:10;;;;;;;10.55;2.00;;;19.30;99.90;;;;;;5060410;28;20463;-66
2022/08/03 01:41:43;;;;;;;11.30;1.90;;;19.30;99.90;;;;;;5023260;28;203883;-66
2022/08/03 01:44:11;;;;;;;13.40;2.00;;;19.20;99.90;;;;;;5037688;28;161290;-65
2022/08/03 01:46:39;;;;;;;13.75;2.10;;;19.30;99.90;;;;;;5028133;28;206302;-65
2022/08/03 01:49:11;;;;;;;13.02;2.17;;;19.30;99.90;;;;;;5035817;28;208178;-65
2022/08/03 01:51:40;;;;;;;15.07;2.17;;;19.20;99.90;;;;;;5027699;28;187565;-65
2022/08/03 01:54:09;;;;;;;13.50;1.98;;;19.20;99.90;;;;;;5062788;28;254175;-65
2022/08/03 01:56:36;;;;;;;10.45;1.83;;;19.20;99.90;;;;;;4984699;28;209714;-65
2022/08/03 01:59:04;;;;;;;12.38;2.50;;;19.20;99.90;;;;;;5019892;28;67733;-65
2022/08/03 02:01:31;;;;;;;13.63;2.10;;;19.20;99.90;;;;;;5021092;28;169034;-65
2022/08/03 02:03:59;;;;;;;13.57;2.15;;;19.20;99.90;;;;;;5049805;28;20399;-65
2022/08/03 02:06:27;;;;;;;14.13;2.15;;;19.20;99.90;;;;;;5025017;28;209857;-65
2022/08/03 02:08:54;;;;;;;12.68;1.92;;;19.10;99.90;;;;;;5045848;28;273060;-65
2022/08/03 02:11:20;;;;;;;12.20;1.88;;;19.10;99.90;;;;;;5006314;28;219319;-64
2022/08/03 02:13:49;;;;;;;10.73;1.80;;;19.10;99.90;;;;;;5037060;28;161092;-65
2022/08/03 02:16:17;;;;;;;10.93;2.10;;;19.10;99.90;;;;;;5030407;28;205923;-65
2022/08/03 02:18:45;;;;;;;13.02;2.20;;;19.00;99.90;;;;;;5057900;28;43897;-65
2022/08/03 02:21:12;;;;;;;11.57;2.28;;;19.10;99.90;;;;;;4990928;28;210231;-65
2022/08/03 02:23:39;;;;;;;14.38;2.05;;;19.00;99.90;;;;;;5028438;28;266125;-65
2022/08/03 02:26:13;;;;;;;14.85;2.00;;;19.00;99.90;;;;;;5032641;28;216745;-65
2022/08/03 02:28:44;;;;;;;9.77;2.22;;;19.00;99.90;;;;;;5051017;28;233092;-65
2022/08/03 02:31:15;;;;;;;15.20;2.20;;;19.00;99.90;;;;;;5004563;28;206356;-65
2022/08/03 02:33:53;;;;;;;10.77;2.15;;;19.00;99.90;;;;;;5041612;28;20437;-65
2022/08/03 02:36:24;;;;;;;11.52;1.98;;;19.00;99.90;;;;;;5029478;28;206933;-65
2022/08/03 02:38:53;;;;;;;10.27;1.95;;;19.00;99.90;;;;;;5040357;28;38274;-65
2022/08/03 02:41:26;;;;;;;10.65;2.00;;;19.00;99.90;;;;;;5019878;28;206614;-64
2022/08/03 02:43:54;;;;;;;11.63;1.98;;;18.90;99.90;;;;;;5041036;28;50367;-65
2022/08/03 02:46:27;;;;;;;9.98;2.00;;;18.90;99.90;;;;;;5007276;28;212812;-65
2022/08/03 02:48:55;;;;;;;11.65;2.28;;;18.90;99.90;;;;;;5038132;28;144365;-65
2022/08/03 02:51:23;;;;;;;12.48;2.10;;;18.80;99.90;;;;;;5005933;28;205760;-65
2022/08/03 02:53:50;;;;;;;11.80;2.30;;;18.80;99.90;;;;;;5037706;28;147436;-65
2022/08/03 02:56:18;;;;;;;11.48;2.25;;;18.80;99.90;;;;;;5023434;28;206180;-65
2022/08/03 02:58:46;;;;;;;11.27;2.22;;;18.80;99.90;;;;;;5050264;28;250308;-65
2022/08/03 03:01:12;;;;;;;14.02;2.35;;;18.80;99.90;;;;;;5011529;28;166319;-65
2022/08/03 03:03:40;;;;;;;10.88;2.50;;;18.80;99.90;;;;;;5035280;28;252618;-65
2022/08/03 03:06:07;;;;;;;11.63;2.28;;;18.80;99.90;;;;;;5030836;28;218470;-64
2022/08/03 03:08:35;;;;;;;15.80;2.53;;;18.70;99.90;;;;;;5048862;28;268938;-65
2022/08/03 03:11:02;;;;;;;11.40;2.47;;;18.70;99.90;;;;;;5005407;28;206868;-64
2022/08/03 03:13:29;;;;;;;13.07;2.40;;;18.70;99.90;;;;;;5061763;28;261882;-65
2022/08/03 03:16:00;;;;;;;14.65;2.45;;;18.70;99.90;;;;;;5025680;28;205490;-65
2022/08/03 03:18:30;;;;;;;11.90;2.40;;;18.70;99.90;;;;;;5031246;28;255083;-64
2022/08/03 03:20:59;;;;;;;12.63;2.88;;;18.70;99.90;;;;;;5042672;28;206998;-65
2022/08/03 03:23:26;;;;;;;17.73;2.90;;;18.70;99.90;;;;;;5031063;28;266444;-65
2022/08/03 03:25:54;;;;;;;12.43;2.67;;;18.60;99.90;;;;;;5012060;28;216379;-65
2022/08/03 03:28:22;;;;;;;15.70;2.40;;;18.60;99.90;;;;;;5060916;28;276671;-65
2022/08/03 03:30:49;;;;;;;10.10;2.20;;;18.60;99.90;;;;;;5037821;28;212578;-65
2022/08/03 03:33:16;;;;;;;12.68;2.50;;;18.60;99.90;;;;;;5041901;28;260400;-65
2022/08/03 03:35:44;;;;;;;10.13;2.50;;;18.60;99.90;;;;;;5004865;28;208870;-66
2022/08/03 03:38:10;;;;;;;11.57;2.60;;;18.60;99.90;;;;;;5051573;28;20164;-65
2022/08/03 03:40:37;;;;;;;17.42;2.50;;;18.60;99.90;;;;;;5006552;28;218586;-65
2022/08/03 03:43:07;;;;;;;15.18;2.88;;;18.50;99.90;;;;;;5049154;28;20044;-65
2022/08/03 03:45:34;;;;;;;11.30;2.30;;;18.50;99.90;;;;;;5006506;28;218216;-65
2022/08/03 03:48:04;;;;;;;14.93;2.67;;;18.50;99.90;;;;;;5064537;28;208362;-65
2022/08/03 03:50:33;;;;;;;10.73;2.53;;;18.50;99.90;;;;;;5049402;28;209918;-63
2022/08/03 03:53:00;;;;;;;10.75;2.47;;;18.50;99.90;;;;;;5024123;28;143323;-66
2022/08/03 03:55:26;;;;;;;11.13;2.60;;;18.50;99.90;;;;;;5066560;28;271430;-65
2022/08/03 03:57:52;;;;;;;16.10;3.10;;;18.50;99.90;;;;;;5007297;28;206240;-65
2022/08/03 04:00:18;;;;;;;12.73;2.45;;;18.50;99.90;;;;;;5066479;28;271049;-65
2022/08/03 04:02:45;;;;;;;13.30;2.88;;;18.50;99.90;;;;;;5024108;28;206406;-65
2022/08/03 04:11:30;;;;;;;18.02;3.03;;;18.40;99.90;;;;;;5010760;28;209221;-65
2022/08/03 04:14:06;;;;;;;18.00;2.60;;;18.40;99.90;;;;;;4965995;28;20060;-65
2022/08/03 04:16:36;;;;;;;11.65;2.58;;;18.40;99.90;;;;;;4964528;28;210680;-65
2022/08/03 04:19:08;;;;;;;13.10;2.67;;;18.40;99.90;;;;;;4963459;28;128066;-65
2022/08/03 04:21:39;;;;;;;11.65;2.83;;;18.50;99.90;;;;;;4911247;28;209970;-65
2022/08/03 04:24:09;;;;;;;14.23;2.70;;;18.50;99.90;;;;;;4956308;28;259894;-65
2022/08/03 04:26:38;;;;;;;11.75;2.60;;;18.40;99.90;;;;;;4925620;28;210699;-65
2022/08/03 04:29:06;;;;;;;14.88;2.83;;;18.50;99.90;;;;;;4968881;28;183439;-65
2022/08/03 04:31:34;;;;;;;16.65;3.03;;;18.50;99.90;;;;;;4938639;28;206864;-64
2022/08/03 04:34:01;;;;;;;13.98;2.72;;;18.50;99.90;;;;;;4974155;28;20050;-64
2022/08/03 04:36:31;;;;;;;14.07;2.72;;;18.50;99.90;;;;;;4952950;28;207571;-64
2022/08/03 04:39:09;;;;;;;13.82;2.70;;;18.50;99.90;;;;;;4965881;28;60632;-65
2022/08/03 04:41:36;;;;;;;12.63;2.90;;;18.50;99.90;;;;;;4937186;28;205230;-65
2022/08/03 04:44:04;;;;;;;12.77;2.70;;;18.60;99.90;;;;;;4965978;28;221432;-65
2022/08/03 04:46:37;;;;;;;11.93;2.60;;;18.60;99.90;;;;;;4939951;28;212704;-65
2022/08/03 04:49:05;;;;;;;17.40;3.08;;;18.60;99.90;;;;;;4991916;28;117424;-65
2022/08/03 04:51:33;;;;;;;15.85;2.80;;;18.70;99.90;;;;;;5020689;28;216676;-64
2022/08/03 04:54:00;;;;;;;11.02;3.25;;;18.60;99.90;;;;;;5058051;28;100588;-65
2022/08/03 04:56:26;;;;;;;13.10;2.88;;;18.70;99.90;;;;;;5024844;28;206644;-65
2022/08/03 04:58:53;;;;;;;13.27;2.60;;;18.70;99.90;;;;;;5058233;28;77424;-65
2022/08/03 05:01:22;;;;;;;16.83;2.85;;;18.70;99.90;;;;;;5024970;28;213648;-67
2022/08/03 05:03:48;;;;;;;15.32;2.88;;;18.70;99.90;;;;;;5049819;28;296571;-65
2022/08/03 05:06:14;;;;;;;13.73;2.70;;;18.80;99.90;;;;;;5031020;28;209346;-65
2022/08/03 05:08:40;;;;;;;15.18;2.80;;;18.80;99.90;;;;;;5063242;28;280641;-65
2022/08/03 05:11:06;;;;;;;12.18;2.92;;;18.90;99.90;;;;;;5010459;28;213136;-65
2022/08/03 05:13:32;;;;;;;11.90;3.00;;;18.90;99.90;;;;;;5034042;28;254104;-65
2022/08/03 05:15:58;;;;;;;11.77;3.00;;;18.90;99.90;;;;;;5012936;28;160119;-65
2022/08/03 05:18:24;;;;;;;14.33;2.53;;;19.00;99.90;;;;;;5049660;28;258957;-65
2022/08/03 05:20:51;;;;;;;15.77;2.83;;;19.10;99.90;;;;;;5036596;28;210091;-63
2022/08/03 05:23:17;;;;;;;13.95;2.72;;;19.10;99.90;;;;;;5051251;28;256926;-63
2022/08/03 05:25:43;;;;;;;14.60;2.70;;;19.20;99.90;;;;;;5011835;28;210055;-65
2022/08/03 05:28:09;;;;;;;12.48;3.40;;;19.30;99.90;;;;;;5070765;28;20052;-65
2022/08/03 05:30:36;;;;;;;13.38;3.20;;;19.30;99.90;;;;;;5028738;28;212095;-63
2022/08/03 05:33:03;;;;;;;13.98;3.05;;;19.40;99.90;;;;;;5050705;28;20051;-65
2022/08/03 05:35:30;;;;;;;12.90;2.83;;;19.40;99.90;;;;;;5020614;28;162057;-65
2022/08/03 05:37:56;;;;;;;12.20;2.92;;;19.50;99.90;;;;;;4991308;28;206389;-65
2022/08/03 05:40:23;;;;;;;20.83;3.20;;;19.60;99.90;;;;;;5064798;28;276496;-65
2022/08/03 05:42:49;;;;;;;11.57;2.70;;;19.60;99.90;;;;;;5026768;28;209401;-65
2022/08/03 05:45:18;;;;;;;14.25;3.50;;;19.70;99.90;;;;;;5042701;28;24216;-65
2022/08/03 05:47:45;;;;;;;17.20;3.10;;;19.60;99.90;;;;;;5024019;28;207146;-65
2022/08/03 05:50:13;;;;;;;14.20;3.25;;;19.70;99.90;;;;;;5058700;28;20051;-65
2022/08/03 05:52:40;;;;;;;14.07;3.25;;;19.70;99.90;;;;;;5009090;28;207854;-65
2022/08/03 05:55:07;;;;;;;11.75;3.00;;;19.70;99.90;;;;;;5034595;28;244852;-65
2022/08/03 05:57:34;;;;;;;15.07;3.10;;;19.80;99.90;;;;;;5008007;28;206916;-66
2022/08/03 06:00:05;;;;;;;16.70;3.00;;;19.80;99.90;;;;;;5054735;28;138553;-65
2022/08/03 06:02:31;;;;;;;15.93;3.50;;;19.80;99.90;;;;;;5023108;28;206699;-65
2022/08/03 06:04:57;;;;;;;16.30;3.22;;;19.80;99.90;;;;;;5047498;28;275598;-65
2022/08/03 06:07:23;;;;;;;13.48;3.20;;;19.90;99.90;;;;;;5035773;28;209232;-67
2022/08/03 06:09:49;;;;;;;12.45;3.13;;;19.90;99.90;;;;;;5051943;28;235091;-66
2022/08/03 06:12:15;;;;;;;14.35;3.00;;;20.10;99.90;;;;;;5005962;28;207476;-66
2022/08/03 06:14:41;;;;;;;15.48;3.05;;;20.20;99.90;;;;;;5062048;28;257326;-66
2022/08/03 06:17:08;;;;;;;17.00;3.20;;;20.30;99.90;;;;;;5012419;28;144395;-66
2022/08/03 06:19:34;;;;;;;14.20;2.80;;;20.50;99.90;;;;;;5060345;28;306375;-66
2022/08/03 06:22:00;;;;;;;17.02;3.20;;;20.70;99.90;;;;;;5016604;28;206240;-66
2022/08/03 06:24:26;;;;;;;11.65;2.70;;;20.90;99.90;;;;;;5046149;28;244978;-66
2022/08/03 06:26:52;;;;;;;17.23;3.42;;;21.10;99.90;;;;;;5032766;28;210857;-66
2022/08/03 06:29:18;;;;;;;18.48;3.28;;;21.20;99.90;;;;;;5035775;28;186108;-65
2022/08/03 06:31:45;;;;;;;12.20;2.70;;;21.30;99.90;;;;;;5033325;28;210585;-65
2022/08/03 06:34:11;;;;;;;16.83;3.10;;;21.40;99.90;;;;;;5061664;28;264952;-65
2022/08/03 06:36:37;;;;;;;13.00;2.70;;;21.40;99.90;;;;;;5006975;28;205880;-65
2022/08/03 06:39:04;;;;;;;18.77;3.00;;;21.50;99.90;;;;;;5050923;28;234782;-66
2022/08/03 06:41:30;;;;;;;16.05;3.17;;;21.60;99.90;;;;;;5039778;28;209146;-66
2022/08/03 06:43:56;;;;;;;20.92;3.40;;;21.70;99.90;;;;;;5042200;28;40708;-65
2022/08/03 06:46:23;;;;;;;13.98;2.85;;;21.70;99.90;;;;;;5040115;28;209615;-66
2022/08/03 06:48:49;;;;;;;15.50;3.08;;;21.80;99.90;;;;;;5036697;28;172152;-67
2022/08/03 06:51:15;;;;;;;15.57;3.08;;;21.90;99.90;;;;;;5045245;28;209388;-67
2022/08/03 06:53:41;;;;;;;14.27;2.70;;;22.00;99.90;;;;;;5076788;28;277522;-67
2022/08/03 06:56:07;;;;;;;15.57;2.65;;;22.20;99.90;;;;;;5040834;28;212701;-67
2022/08/03 06:58:34;;;;;;;16.13;2.90;;;22.30;99.90;;;;;;5048672;28;274619;-67
2022/08/03 07:01:00;;;;;;;15.00;2.80;;;22.50;99.90;;;;;;5010751;28;206072;-67
2022/08/03 07:03:26;;;;;;;16.67;2.83;;;22.60;99.90;;;;;;5045286;28;278896;-66
2022/08/03 07:05:52;;;;;;;12.88;2.90;;;22.50;99.90;;;;;;5021956;28;210130;-67
2022/08/03 07:08:18;;;;;;;15.68;2.88;;;22.50;99.90;;;;;;5046372;28;275052;-67
2022/08/03 07:10:45;;;;;;;14.20;2.88;;;22.60;99.90;;;;;;5038107;28;209284;-67
2022/08/03 07:13:11;;;;;;;17.92;3.13;;;22.70;99.90;;;;;;5081407;28;20044;-67
2022/08/03 07:15:38;;;;;;;14.52;2.28;;;22.70;99.90;;;;;;5001775;28;220120;-67
2022/08/03 07:18:05;;;;;;;14.90;2.92;;;23.00;99.90;;;;;;5065655;28;20409;-67
2022/08/03 07:20:32;;;;;;;19.98;2.95;;;23.10;99.90;;;;;;5054600;28;209894;-67
2022/08/03 07:22:58;;;;;;;13.73;2.35;;;23.40;99.90;;;;;;5051624;28;206050;-68
2022/08/03 07:25:24;;;;;;;17.05;3.13;;;23.30;99.90;;;;;;5063036;28;264865;-67
2022/08/03 07:27:50;;;;;;;17.83;2.92;;;23.30;99.90;;;;;;5020157;28;209621;-67
2022/08/03 07:30:17;;;;;;;16.48;2.90;;;23.50;99.90;;;;;;5067424;28;271613;-66
2022/08/03 07:32:43;;;;;;;14.65;3.08;;;23.60;99.90;;;;;;5035608;28;213117;-66
2022/08/03 07:35:10;;;;;;;16.00;2.50;;;23.80;99.90;;;;;;5037459;28;215485;-67
2022/08/03 07:37:36;;;;;;;16.50;2.78;;;24.20;99.90;;;;;;5027634;28;206746;-66
2022/08/03 07:40:04;;;;;;;15.00;2.83;;;24.50;99.90;;;;;;5061197;28;48800;-66
2022/08/03 07:42:30;;;;;;;13.55;2.80;;;24.70;99.90;;;;;;5012012;28;209343;-66
2022/08/03 07:44:57;;;;;;;16.05;2.92;;;24.70;99.90;;;;;;5064618;28;254507;-67
2022/08/03 07:47:28;;;;;;;14.60;2.83;;;24.70;99.90;;;;;;5038286;28;209426;-67
2022/08/03 07:49:55;;;;;;;12.32;2.95;;;24.70;99.90;;;;;;5066367;28;287859;-67
2022/08/03 07:55:06;;;;;;;14.10;2.80;;;24.70;99.90;;;;;;5059811;28;70917;-66
2022/08/03 07:57:32;;;;;;;16.85;3.20;;;24.70;99.90;;;;;;5030618;28;175998;-66
2022/08/03 07:59:58;;;;;;;17.25;3.10;;;24.80;99.90;;;;;;5064262;28;260759;-67
2022/08/03 08:02:25;;;;;;;16.48;3.17;;;24.70;99.90;;;;;;5040388;28;210010;-68
2022/08/03 08:04:51;;;;;;;18.20;3.08;;;24.80;99.90;;;;;;5039612;28;231454;-69
2022/08/03 08:07:17;;;;;;;16.45;3.10;;;25.10;99.90;;;;;;5018990;28;199448;-69
2022/08/03 08:09:43;;;;;;;16.42;2.90;;;25.50;99.90;;;;;;5040533;28;90448;-67
2022/08/03 08:12:11;;;;;;;15.38;2.83;;;25.90;99.90;;;;;;5043584;28;209963;-67
2022/08/03 08:14:37;;;;;;;14.98;2.97;;;26.00;99.90;;;;;;5057058;28;138030;-67
2022/08/03 08:17:04;;;;;;;17.45;3.13;;;26.10;99.90;;;;;;5023921;28;206635;-67
2022/08/03 08:19:30;;;;;;;14.48;2.90;;;26.20;99.90;;;;;;5064210;28;260983;-67
2022/08/03 08:21:56;;;;;;;20.17;3.20;;;26.20;99.90;;;;;;5032693;28;129365;-67
2022/08/03 08:24:22;;;;;;;13.07;2.72;;;26.30;99.90;;;;;;5054072;28;215352;-68
2022/08/03 08:26:48;;;;;;;12.18;2.60;;;26.60;99.90;;;;;;5024725;28;209905;-67
2022/08/03 08:29:14;;;;;;;13.90;2.90;;;26.80;99.90;;;;;;5059249;28;68342;-67
2022/08/03 08:31:40;;;;;;;14.38;2.53;;;26.80;99.90;;;;;;5034538;28;209799;-68
2022/08/03 08:34:07;;;;;;;18.05;3.13;;;27.00;99.90;;;;;;5039276;28;143878;-68
2022/08/03 08:36:35;;;;;;;12.88;2.80;;;26.90;99.90;;;;;;5012162;28;206813;-68
2022/08/03 08:39:02;;;;;;;16.98;3.35;;;27.00;99.90;;;;;;5042744;28;70711;-68
2022/08/03 08:41:32;;;;;;;12.70;2.72;;;26.80;99.90;;;;;;5037737;28;210944;-67
2022/08/03 08:43:58;;;;;;;15.90;2.95;;;26.60;99.90;;;;;;5038655;28;174361;-67
2022/08/03 08:46:25;;;;;;;15.80;2.55;;;26.60;99.90;;;;;;5032223;28;123919;-68
2022/08/03 08:48:52;;;;;;;15.25;2.55;;;26.70;99.90;;;;;;5052438;28;250145;-67
2022/08/03 08:51:20;;;;;;;16.38;2.72;;;26.70;99.90;;;;;;5028301;28;191309;-67
2022/08/03 08:53:52;;;;;;;13.95;2.70;;;26.90;99.90;;;;;;5054048;28;197930;-67
2022/08/03 08:56:21;;;;;;;15.77;2.50;;;26.80;99.90;;;;;;5034329;28;209904;-67
2022/08/03 08:58:56;;;;;;;11.82;2.67;;;26.70;99.90;;;;;;5038412;28;198512;-68
2022/08/03 09:01:22;;;;;;;13.55;3.25;;;26.60;99.90;;;;;;5008659;28;206543;-67
2022/08/03 09:03:49;;;;;;;12.20;3.00;;;26.60;99.90;;;;;;5025058;28;213938;-68
2022/08/03 09:06:16;;;;;;;18.75;3.20;;;26.60;99.90;;;;;;4989765;28;206224;-68
2022/08/03 09:08:42;;;;;;;13.38;2.83;;;27.10;99.90;;;;;;5035902;28;248717;-68
2022/08/03 09:11:08;;;;;;;13.82;3.00;;;27.10;99.90;;;;;;5034955;28;73831;-68
2022/08/03 09:13:35;;;;;;;15.70;3.50;;;27.00;99.60;;;;;;5033718;28;260933;-68
2022/08/03 09:16:19;;;;;;;15.07;2.80;;;27.10;99.90;;;;;;5030044;28;206197;-68
2022/08/03 09:18:48;;;;;;;15.15;2.72;;;27.40;99.10;;;;;;5038031;28;168153;-68
2022/08/03 09:21:25;;;;;;;12.82;2.97;;;27.30;99.60;;;;;;5004771;28;209783;-68
2022/08/03 09:23:57;;;;;;;12.75;3.10;;;27.30;99.20;;;;;;5067599;28;289531;-68
2022/08/03 09:26:26;;;;;;;16.95;3.20;;;27.20;99.70;;;;;;5035462;28;210346;-68
2022/08/03 09:29:00;;;;;;;14.00;3.38;;;27.70;99.80;;;;;;5038880;28;129945;-69
2022/08/03 09:31:38;;;;;;;13.13;2.70;;;27.70;98.50;;;;;;5022597;28;207361;-68
2022/08/03 09:34:12;;;;;;;14.35;2.97;;;28.00;99.10;;;;;;5050536;28;249080;-68
2022/08/03 09:36:39;;;;;;;13.68;2.80;;;28.30;98.30;;;;;;5016082;28;107704;-67
2022/08/03 09:39:14;;;;;;;17.08;2.90;;;28.20;99.40;;;;;;5055125;28;132588;-68
2022/08/03 09:41:42;;;;;;;13.77;3.00;;;28.60;98.50;;;;;;5033602;28;205914;-68
2022/08/03 09:44:09;;;;;;;14.82;3.47;;;28.60;98.40;;;;;;5040406;28;97742;-68
2022/08/03 09:46:55;;;;;;;16.83;3.22;;;28.60;98.40;;;;;;5023135;28;207146;-68
2022/08/03 09:49:21;;;;;;;14.60;2.67;;;28.90;97.80;;;;;;5057307;28;72263;-68
2022/08/03 09:51:48;;;;;;;17.25;3.13;;;29.20;97.80;;;;;;5002825;28;213027;-68
2022/08/03 09:54:28;;;;;;;13.23;2.50;;;29.40;97.50;;;;;;5054450;28;133791;-68
2022/08/03 09:56:56;;;;;;;13.60;2.80;;;29.30;97.70;;;;;;5027099;28;206294;-67
2022/08/03 09:59:24;;;;;;;13.20;2.38;;;29.20;97.60;;;;;;5061721;28;274307;-68
2022/08/03 10:01:51;;;;;;;15.43;3.05;;;29.50;97.00;;;;;;5013612;28;126664;-68
2022/08/03 10:04:17;;;;;;;12.93;3.05;;;29.80;97.10;;;;;;5024855;28;133830;-68
2022/08/03 10:07:03;;;;;;;16.40;3.47;;;30.20;96.80;;;;;;5036648;28;210736;-68
2022/08/03 10:09:29;;;;;;;15.93;2.95;;;30.40;95.50;;;;;;5036094;28;194567;-68
2022/08/03 10:11:56;;;;;;;13.40;2.63;;;30.00;96.30;;;;;;5003309;28;215675;-68
2022/08/03 10:14:22;;;;;;;16.00;3.00;;;30.40;96.30;;;;;;5061887;28;262922;-68
2022/08/03 10:16:49;;;;;;;14.25;2.85;;;30.60;96.00;;;;;;5003325;28;212421;-69
2022/08/03 10:19:16;;;;;;;13.57;2.42;;;30.80;95.70;;;;;;5035017;28;216956;-69
2022/08/03 10:21:49;;;;;;;16.80;3.47;;;31.10;95.60;;;;;;5002447;28;212740;-70
2022/08/03 10:24:19;;;;;;;15.85;2.63;;;31.20;94.10;;;;;;5057190;28;67673;-69
2022/08/03 10:26:46;;;;;;;11.68;2.50;;;31.20;94.50;;;;;;5007987;28;217322;-69
2022/08/03 10:29:20;;;;;;;17.17;2.90;;;31.00;94.30;;;;;;5054868;28;127175;-68
2022/08/03 10:31:47;;;;;;;18.27;2.88;;;31.10;94.20;;;;;;5038296;28;210769;-69
2022/08/03 10:34:22;;;;;;;15.98;2.88;;;31.30;94.20;;;;;;5039722;28;74608;-70
2022/08/03 10:36:50;;;;;;;16.10;2.90;;;31.40;93.80;;;;;;5031729;28;210510;-70
2022/08/03 10:39:20;;;;;;;13.02;2.38;;;31.60;93.70;;;;;;5054523;28;110375;-70
2022/08/03 10:41:48;;;;;;;16.90;2.75;;;31.30;92.60;;;;;;5026095;28;208060;-69
2022/08/03 10:44:19;;;;;;;17.05;2.63;;;31.10;93.20;;;;;;5050506;28;247431;-69
2022/08/03 10:46:47;;;;;;;14.57;2.90;;;31.40;93.40;;;;;;5009049;28;207738;-70
2022/08/03 10:49:15;;;;;;;14.85;2.80;;;31.80;92.80;;;;;;5061137;28;270671;-70
2022/08/03 10:51:44;;;;;;;15.65;2.85;;;32.10;92.60;;;;;;5026953;28;134030;-70
2022/08/03 10:57:49;;;;;;;15.05;2.85;;;32.10;91.20;;;;;;5045571;28;210623;-68
2022/08/03 11:00:17;;;;;;;18.77;2.85;;;32.20;90.40;;;;;;5041506;28;34864;-67
2022/08/03 11:03:02;;;;;;;17.48;2.90;;;32.00;90.50;;;;;;5031918;28;213000;-70
2022/08/03 11:05:30;;;;;;;17.00;3.22;;;32.00;88.90;;;;;;5054272;28;254027;-69
2022/08/03 11:08:29;;;;;;;17.00;3.28;;;31.90;89.90;;;;;;5028720;28;207906;-68
2022/08/03 11:11:27;;;;;;;18.67;3.60;;;32.20;90.00;;;;;;5017044;28;212243;-69
2022/08/03 11:14:03;;;;;;;14.15;3.22;;;32.30;88.70;;;;;;4958387;28;243145;-69
2022/08/03 11:16:33;;;;;;;19.38;3.33;;;32.70;89.90;;;;;;4941718;28;216511;-70
2022/08/03 11:19:02;;;;;;;21.55;3.53;;;32.70;86.60;;;;;;4960709;28;245833;-69
2022/08/03 11:21:52;;;;;;;17.90;3.45;;;32.70;86.50;;;;;;4945858;28;210241;-69
2022/08/03 11:24:39;;;;;;;17.52;3.85;;;32.70;84.50;;;;;;4977064;28;221515;-68
2022/08/03 11:27:16;;;;;;;23.85;3.72;;;32.70;83.90;;;;;;4924713;28;206920;-69
2022/08/03 11:30:21;;;;;;;15.82;3.28;;;32.30;83.30;;;;;;4975734;28;204384;-68
2022/08/03 11:32:49;;;;;;;16.92;3.55;;;32.50;84.50;;;;;;4948848;28;207338;-69
2022/08/03 11:35:16;;;;;;;19.83;3.20;;;32.70;84.00;;;;;;4981180;28;47382;-70
2022/08/03 11:38:01;;;;;;;21.38;3.47;;;32.70;81.50;;;;;;4942690;28;207293;-70
2022/08/03 11:40:36;;;;;;;17.58;3.45;;;32.70;80.60;;;;;;4976516;28;156082;-69
2022/08/03 11:43:04;;;;;;;14.90;2.83;;;32.70;81.50;;;;;;4933848;28;206580;-68
2022/08/03 11:45:30;;;;;;;18.85;3.70;;;33.00;82.80;;;;;;4990750;28;214401;-69
2022/08/03 11:48:00;;;;;;;17.10;3.17;;;33.20;81.30;;;;;;4964640;28;207254;-69
2022/08/03 11:50:35;;;;;;;23.63;3.88;;;33.30;80.10;;;;;;5001819;28;68965;-68
2022/08/03 11:53:01;;;;;;;18.27;3.35;;;33.30;78.90;;;;;;5008669;28;216338;-70
2022/08/03 11:55:29;;;;;;;16.35;3.10;;;33.30;79.40;;;;;;5066226;28;253472;-69
2022/08/03 11:57:59;;;;;;;18.73;3.63;;;33.20;79.70;;;;;;4998174;28;268777;-68
2022/08/03 12:00:31;;;;;;;18.75;3.05;;;33.50;78.60;;;;;;5019401;28;222117;-69
2022/08/03 12:03:07;;;;;;;18.27;3.42;;;33.70;77.00;;;;;;5001033;28;129855;-69
2022/08/03 12:05:38;;;;;;;18.77;3.50;;;33.50;76.00;;;;;;5000390;28;209492;-66
2022/08/03 12:08:05;;;;;;;18.50;3.45;;;33.50;75.20;;;;;;5049371;28;209778;-68
2022/08/03 12:10:31;;;;;;;20.40;3.88;;;33.60;77.50;;;;;;5055959;28;263648;-67
2022/08/03 12:12:59;;;;;;;16.92;3.00;;;33.70;75.90;;;;;;5038073;28;208220;-68
2022/08/03 12:15:30;;;;;;;21.08;3.65;;;33.90;75.30;;;;;;5035339;28;222975;-69
2022/08/03 12:17:57;;;;;;;17.92;3.30;;;33.80;74.10;;;;;;5007707;28;224920;-69
2022/08/03 12:20:26;;;;;;;18.20;4.07;;;33.80;76.20;;;;;;5055842;28;111128;-69
2022/08/03 12:22:52;;;;;;;14.50;3.30;;;34.00;74.70;;;;;;5034894;28;210120;-69
2022/08/03 12:25:24;;;;;;;19.83;3.78;;;34.10;72.00;;;;;;5026336;28;42958;-70
2022/08/03 12:27:52;;;;;;;15.77;3.53;;;33.70;71.40;;;;;;5005223;28;207219;-68
2022/08/03 12:30:18;;;;;;;20.17;3.33;;;33.90;73.00;;;;;;5023594;28;168227;-69
2022/08/03 12:32:45;;;;;;;17.67;3.58;;;34.00;71.70;;;;;;5029726;28;121100;-69
2022/08/03 12:35:24;;;;;;;17.23;3.25;;;34.20;71.10;;;;;;5051621;28;239526;-70
2022/08/03 12:37:51;;;;;;;18.35;3.65;;;34.20;70.00;;;;;;5002548;28;209952;-69
2022/08/03 12:40:25;;;;;;;15.35;2.97;;;34.00;70.00;;;;;;5043790;28;23974;-69
2022/08/03 12:42:51;;;;;;;16.48;2.92;;;33.90;65.80;;;;;;5022885;28;206454;-69
2022/08/03 12:45:26;;;;;;;16.95;3.17;;;33.90;67.60;;;;;;5037357;28;220318;-69
2022/08/03 12:48:00;;;;;;;21.60;3.13;;;33.80;65.60;;;;;;5003116;28;209652;-68
2022/08/03 12:50:31;;;;;;;18.83;3.20;;;33.80;65.10;;;;;;5064695;28;264669;-69